createdAt,value
2023-04-09T00:00:26.109Z,35.35
2023-04-09T00:05:27.596Z,36.33
2023-04-09T00:10:29.057Z,35.63
2023-04-09T00:15:31.516Z,34.63
2023-04-09T00:20:33.456Z,35.25
2023-04-09T00:25:35.221Z,33.92
2023-04-09T00:30:36.839Z,33.53
2023-04-09T00:35:38.457Z,33.55
2023-04-09T00:40:40.984Z,32.50
2023-04-09T00:45:42.563Z,31.67
2023-04-09T00:50:44.359Z,34.00
2023-04-09T00:55:46.195Z,34.30
2023-04-09T01:00:47.749Z,32.65
2023-04-09T01:06:01.079Z,34.22
2023-04-09T01:11:39.756Z,33.30
2023-04-09T01:16:44.566Z,33.72
2023-04-09T01:21:46.495Z,34.35
2023-04-09T01:26:58.389Z,35.72
2023-04-09T01:32:03.031Z,35.25
2023-04-09T01:37:05.460Z,34.92
2023-04-09T01:42:11.080Z,36.35
2023-04-09T01:47:13.192Z,36.58
2023-04-09T01:52:14.971Z,35.50
2023-04-09T01:57:16.575Z,36.78
2023-04-09T02:02:25.734Z,39.17
2023-04-09T02:07:36.519Z,37.08
2023-04-09T02:12:40.367Z,38.47
2023-04-09T02:17:41.890Z,38.20
2023-04-09T02:22:43.368Z,37.92
2023-04-09T02:27:44.844Z,38.33
2023-04-09T02:32:46.346Z,38.90
2023-04-09T02:37:47.813Z,39.92
2023-04-09T02:42:49.317Z,38.20
2023-04-09T02:47:50.847Z,36.97
2023-04-09T02:52:52.412Z,37.72
2023-04-09T02:57:53.919Z,37.15
2023-04-09T03:02:55.534Z,36.67
2023-04-09T03:07:57.106Z,35.88
2023-04-09T03:12:58.629Z,37.60
2023-04-09T03:18:00.275Z,37.05
2023-04-09T03:23:01.811Z,37.20
2023-04-09T03:28:03.648Z,37.35
2023-04-09T03:33:05.482Z,37.13
2023-04-09T03:38:07.051Z,37.85
2023-04-09T03:43:08.615Z,37.67
2023-04-09T03:48:10.102Z,39.17
2023-04-09T03:53:11.630Z,37.90
2023-04-09T03:58:13.134Z,37.38
2023-04-09T04:03:16.529Z,37.50
2023-04-09T04:08:18.260Z,36.30
2023-04-09T04:13:19.755Z,38.05
2023-04-09T04:18:21.239Z,39.38
2023-04-09T04:23:22.761Z,38.78
2023-04-09T04:28:24.278Z,39.80
2023-04-09T04:33:25.784Z,43.80
2023-04-09T04:38:27.246Z,44.05
2023-04-09T04:43:29.240Z,45.15
2023-04-09T04:48:31.926Z,44.72
2023-04-09T04:53:33.533Z,42.25
2023-04-09T04:58:35.104Z,41.38
2023-04-09T05:03:36.694Z,40.63
2023-04-09T05:08:38.293Z,40.95
2023-04-09T05:13:39.785Z,40.33
2023-04-09T05:18:41.301Z,38.45
2023-04-09T05:23:42.784Z,39.45
2023-04-09T05:28:44.325Z,39.88
2023-04-09T05:33:46.215Z,39.63
2023-04-09T05:38:47.979Z,36.83
2023-04-09T05:43:49.563Z,36.10
2023-04-09T05:48:51.369Z,34.60
2023-04-09T05:53:53.267Z,32.92
2023-04-09T05:58:55.026Z,33.15
2023-04-09T06:03:58.528Z,31.98
2023-04-09T06:09:00.534Z,34.08
2023-04-09T06:14:02.094Z,33.95
2023-04-09T06:19:03.629Z,33.33
2023-04-09T06:24:05.426Z,31.55
2023-04-09T06:29:07.031Z,29.73
2023-04-09T06:34:08.550Z,29.70
2023-04-09T06:39:10.553Z,29.63
2023-04-09T06:44:12.071Z,29.95
2023-04-09T06:49:13.550Z,30.25
2023-04-09T06:54:15.027Z,29.92
2023-04-09T06:59:16.786Z,30.83
2023-04-09T07:04:18.650Z,30.55
2023-04-09T07:09:20.616Z,28.83
2023-04-09T07:14:22.177Z,29.98
2023-04-09T07:19:23.679Z,30.38
2023-04-09T07:24:25.210Z,29.70
2023-04-09T07:29:27.363Z,28.02
2023-04-09T07:34:29.087Z,28.70
2023-04-09T07:39:30.673Z,28.60
2023-04-09T07:44:36.521Z,29.10
2023-04-09T07:49:38.716Z,30.50
2023-04-09T07:54:40.550Z,29.52
2023-04-09T07:59:42.255Z,29.23
2023-04-09T08:04:43.995Z,28.60
2023-04-09T08:09:45.959Z,27.45
2023-04-09T08:14:47.514Z,27.85
2023-04-09T08:19:49.832Z,27.33
2023-04-09T08:24:53.013Z,27.20
2023-04-09T08:29:54.669Z,27.52
2023-04-09T08:34:56.169Z,26.83
2023-04-09T08:39:57.643Z,28.73
2023-04-09T08:44:59.230Z,29.45
2023-04-09T08:50:00.818Z,28.98
2023-04-09T08:55:02.417Z,28.10
2023-04-09T09:00:04.923Z,26.70
2023-04-09T09:05:06.689Z,26.38
2023-04-09T09:10:08.428Z,26.40
2023-04-09T09:15:29.643Z,25.30
2023-04-09T09:20:31.338Z,25.98
2023-04-09T09:25:38.506Z,25.23
2023-04-09T09:30:41.005Z,26.38
2023-04-09T09:35:54.341Z,24.58
2023-04-09T09:40:56.563Z,24.63
2023-04-09T09:45:58.521Z,25.27
2023-04-09T09:51:03.395Z,24.80
2023-04-09T09:56:06.842Z,24.52
2023-04-09T10:01:11.216Z,24.90
2023-04-09T10:06:13.547Z,24.10
2023-04-09T10:11:15.162Z,24.35
2023-04-09T10:16:17.874Z,24.08
2023-04-09T10:21:53.721Z,24.05
2023-04-09T10:26:55.607Z,23.83
2023-04-09T10:32:07.157Z,23.98
2023-04-09T10:37:13.570Z,24.15
2023-04-09T10:42:18.487Z,23.92
2023-04-09T10:47:33.728Z,23.58
2023-04-09T10:52:35.194Z,22.75
2023-04-09T10:57:36.821Z,23.27
2023-04-09T11:02:38.419Z,25.23
2023-04-09T11:07:44.191Z,25.20
2023-04-09T11:12:47.733Z,25.55
2023-04-09T11:17:49.738Z,26.60
2023-04-09T11:22:53.006Z,25.23
2023-04-09T11:27:54.747Z,25.20
2023-04-09T11:32:56.356Z,23.58
2023-04-09T11:37:57.946Z,25.60
2023-04-09T11:42:59.416Z,23.67
2023-04-09T11:48:02.503Z,25.27
2023-04-09T11:53:18.061Z,23.98
2023-04-09T11:58:23.332Z,25.98
2023-04-09T12:03:30.627Z,25.70
2023-04-09T12:13:42.800Z,24.63
2023-04-09T12:18:44.305Z,24.90
2023-04-09T12:23:45.771Z,23.70
2023-04-09T12:28:47.589Z,23.05
2023-04-09T12:33:49.185Z,23.58
2023-04-09T12:38:51.083Z,23.13
2023-04-09T12:43:53.074Z,24.60
2023-04-09T12:48:54.708Z,25.23
2023-04-09T12:53:56.219Z,22.65
2023-04-09T12:58:57.785Z,21.63
2023-04-09T13:03:59.488Z,21.17
2023-04-09T13:09:01.158Z,19.58
2023-04-09T13:14:02.638Z,19.05
2023-04-09T13:19:04.105Z,20.00
2023-04-09T13:24:05.884Z,18.00
2023-04-09T13:29:08.206Z,18.83
2023-04-09T13:34:09.682Z,16.83
2023-04-09T13:39:11.285Z,18.02
2023-04-09T13:44:12.915Z,16.73
2023-04-09T13:49:14.435Z,16.75
2023-04-09T13:54:16.276Z,18.08
2023-04-09T13:59:18.107Z,16.33
2023-04-09T14:04:19.786Z,16.45
2023-04-09T14:09:21.282Z,16.67
2023-04-09T14:14:22.923Z,16.77
2023-04-09T14:19:24.530Z,15.48
2023-04-09T14:24:26.247Z,15.60
2023-04-09T14:29:28.175Z,15.02
2023-04-09T14:34:31.488Z,15.40
2023-04-09T14:39:33.028Z,14.00
2023-04-09T14:44:34.954Z,14.80
2023-04-09T14:49:38.622Z,13.48
2023-04-09T14:54:40.169Z,14.35
2023-04-09T14:59:41.736Z,14.40
2023-04-09T15:04:43.410Z,13.45
2023-04-09T15:09:45.027Z,13.95
2023-04-09T15:14:46.486Z,14.13
2023-04-09T15:19:48.060Z,13.35
2023-04-09T15:24:50.464Z,14.77
2023-04-09T15:29:52.112Z,13.75
2023-04-09T15:34:53.594Z,13.20
2023-04-09T15:39:55.100Z,13.23
2023-04-09T15:44:56.608Z,12.82
2023-04-09T15:49:59.148Z,14.30
2023-04-09T15:55:01.601Z,15.75
2023-04-09T16:00:03.210Z,12.75
2023-04-09T16:05:06.129Z,11.93
2023-04-09T16:10:08.264Z,11.77
2023-04-09T16:15:11.217Z,11.52
2023-04-09T16:20:12.778Z,12.02
2023-04-09T16:25:14.364Z,11.30
2023-04-09T16:30:15.931Z,10.52
2023-04-09T16:35:17.513Z,11.25
2023-04-09T16:40:24.164Z,10.50
2023-04-09T16:45:25.800Z,11.33
2023-04-09T16:50:27.563Z,10.63
2023-04-09T16:55:29.273Z,10.32
2023-04-09T17:00:31.269Z,9.73
2023-04-09T17:05:32.949Z,10.55
2023-04-09T17:10:36.760Z,9.98
2023-04-09T17:15:38.337Z,10.68
2023-04-09T17:20:39.849Z,10.65
2023-04-09T17:25:41.502Z,10.68
2023-04-09T17:30:43.449Z,11.63
2023-04-09T17:35:45.028Z,12.45
2023-04-09T17:40:46.969Z,11.75
2023-04-09T17:45:49.216Z,13.85
2023-04-09T17:50:51.259Z,20.13
2023-04-09T17:55:52.864Z,12.60
2023-04-09T18:00:55.452Z,10.70
2023-04-09T18:05:57.085Z,11.52
2023-04-09T18:11:11.433Z,11.65
2023-04-09T18:16:14.660Z,11.52
2023-04-09T18:21:16.429Z,11.40
2023-04-09T18:26:17.914Z,11.75
2023-04-09T18:31:19.392Z,12.32
2023-04-09T18:36:20.974Z,11.90
2023-04-09T18:41:26.605Z,12.20
2023-04-09T18:46:28.710Z,12.63
2023-04-09T18:51:31.685Z,12.65
2023-04-09T18:56:33.663Z,14.23
2023-04-09T19:01:35.184Z,27.08
2023-04-09T19:06:37.456Z,41.95
2023-04-09T19:11:38.929Z,32.53
2023-04-09T19:16:40.909Z,15.55
2023-04-09T19:21:42.466Z,14.93
2023-04-09T19:26:44.104Z,14.07
2023-04-09T19:31:46.308Z,13.55
2023-04-09T19:36:47.921Z,12.88
2023-04-09T19:41:50.312Z,13.88
2023-04-09T19:46:51.805Z,12.88
2023-04-09T19:51:53.357Z,13.93
2023-04-09T19:56:56.037Z,14.35
2023-04-09T20:01:59.758Z,13.52
2023-04-09T20:07:04.099Z,12.50
2023-04-09T20:12:08.633Z,12.52
2023-04-09T20:17:10.685Z,12.32
2023-04-09T20:22:12.260Z,12.65
2023-04-09T20:27:13.960Z,12.30
2023-04-09T20:32:15.475Z,11.30
2023-04-09T20:37:17.011Z,11.13
2023-04-09T20:42:18.474Z,10.75
2023-04-09T20:47:23.124Z,10.93
2023-04-09T20:52:28.127Z,11.30
2023-04-09T20:57:29.701Z,11.48
2023-04-09T21:02:31.354Z,12.77
2023-04-09T21:07:32.985Z,13.27
2023-04-09T21:12:34.695Z,15.25
2023-04-09T21:17:36.326Z,15.80
2023-04-09T21:22:37.962Z,14.82
2023-04-09T21:27:39.514Z,14.10
2023-04-09T21:32:41.043Z,13.25
2023-04-09T21:37:42.626Z,11.95
2023-04-09T21:42:44.227Z,11.18
2023-04-09T21:47:46.143Z,11.60
2023-04-09T21:52:47.692Z,11.85
2023-04-09T21:57:49.216Z,12.32
2023-04-09T22:02:51.113Z,13.05
2023-04-09T22:07:52.644Z,13.60
2023-04-09T22:12:54.456Z,12.95
2023-04-09T22:17:56.187Z,12.13
2023-04-09T22:22:57.805Z,13.07
2023-04-09T22:27:59.279Z,11.85
2023-04-09T22:33:02.208Z,13.05
2023-04-09T22:38:04.045Z,13.73
2023-04-09T22:43:05.695Z,14.13
2023-04-09T22:48:07.795Z,16.05
2023-04-09T22:53:09.326Z,16.40
2023-04-09T22:58:11.037Z,18.17
2023-04-09T23:03:12.891Z,20.13
2023-04-09T23:08:14.582Z,19.95
2023-04-09T23:13:18.007Z,20.63
2023-04-09T23:18:19.502Z,21.02
2023-04-09T23:23:20.953Z,21.23
2023-04-09T23:28:22.466Z,21.52
2023-04-09T23:33:24.070Z,21.67
2023-04-09T23:38:25.569Z,21.40
2023-04-09T23:43:27.085Z,21.92
2023-04-09T23:48:28.603Z,20.60
2023-04-09T23:53:30.107Z,19.80
2023-04-09T23:58:32.139Z,19.90
